Time;durP1;ratioP1;P1;durP2;ratioP2;P2;SDS_P1;SDS_P2;PMS_P1;PMS_P2;Temp;Humidity;BMP_temperature;BMP_pressure;BME280_temperature;BME280_humidity;BME280_pressure;Samples;Min_cycle;Max_cycle;Signal;HPM_P1;HPM_P2
2022/05/24 00:00:10;;;;;;;36.33;25.85;;;;;;;-150.07;100.00;67148.00;5031436;28;20037;-77
2022/05/24 00:02:37;;;;;;;27.85;22.33;;;;;;;-150.07;100.00;67148.00;5032445;28;20025;-77
2022/05/24 00:05:04;;;;;;;23.25;20.80;;;;;;;-150.07;100.00;67148.00;5031529;28;20108;-77
2022/05/24 00:07:31;;;;;;;27.95;24.02;;;;;;;-150.07;100.00;67148.00;5031766;28;20156;-80
2022/05/24 00:09:58;;;;;;;27.48;23.65;;;;;;;-150.07;100.00;67148.00;5033827;28;20026;-80
2022/05/24 00:12:24;;;;;;;29.73;26.17;;;;;;;-150.07;100.00;67148.00;5033747;28;20104;-79
2022/05/24 00:17:36;;;;;;;26.00;22.90;;;;;;;-150.07;100.00;67148.00;5033532;28;20040;-78
2022/05/24 00:20:05;;;;;;;25.90;22.83;;;;;;;-150.07;100.00;67148.00;5033349;28;20021;-77
2022/05/24 00:22:31;;;;;;;25.92;21.20;;;;;;;-150.07;100.00;67148.00;5038057;28;20120;-79
2022/05/24 00:25:01;;;;;;;27.50;21.13;;;;;;;-150.07;100.00;67148.00;5051095;28;20029;-78
2022/05/24 00:27:31;;;;;;;33.45;19.73;;;;;;;-150.07;100.00;67148.00;5046522;28;20021;-77
2022/05/24 00:29:59;;;;;;;20.50;17.30;;;;;;;-150.07;100.00;67148.00;5040076;28;20022;-78
2022/05/24 00:32:26;;;;;;;23.20;18.58;;;;;;;-150.07;100.00;67148.00;5049998;28;20024;-79
2022/05/24 00:34:53;;;;;;;21.73;15.27;;;;;;;-150.07;100.00;67148.00;5042276;28;20107;-78
2022/05/24 00:37:26;;;;;;;23.48;15.10;;;;;;;-150.07;100.00;67148.00;5040810;28;20466;-78
2022/05/24 00:39:52;;;;;;;25.90;15.57;;;;;;;-150.07;100.00;67148.00;5038809;28;20079;-76
2022/05/24 00:42:26;;;;;;;19.05;15.48;;;;;;;-150.07;100.00;67148.00;5038127;28;20033;-77
2022/05/24 00:45:15;;;;;;;17.13;14.18;;;;;;;-150.07;100.00;67148.00;5038917;28;20191;-77
2022/05/24 00:47:51;;;;;;;25.58;14.70;;;;;;;-150.07;100.00;67148.00;5036926;28;20025;-76
2022/05/24 00:50:31;;;;;;;20.23;14.65;;;;;;;-150.07;100.00;67148.00;5037275;28;20116;-77
2022/05/24 00:53:04;;;;;;;19.08;12.68;;;;;;;-150.07;100.00;67148.00;5037497;28;20125;-77
2022/05/24 00:55:43;;;;;;;21.25;12.88;;;;;;;-150.07;100.00;67148.00;5037649;28;20021;-77
2022/05/24 00:58:15;;;;;;;15.80;12.85;;;;;;;-150.07;100.00;67148.00;5035870;28;20026;-78
2022/05/24 01:00:43;;;;;;;14.13;11.52;;;;;;;-150.07;100.00;67148.00;5035747;28;20026;-77
2022/05/24 01:03:10;;;;;;;16.45;12.02;;;;;;;-150.07;100.00;67148.00;5036095;28;20036;-77
2022/05/24 01:05:36;;;;;;;16.17;13.73;;;;;;;-150.07;100.00;67148.00;5034180;28;20455;-77
2022/05/24 01:08:04;;;;;;;14.60;13.23;;;;;;;-150.07;100.00;67148.00;5035165;28;20025;-77
2022/05/24 01:10:38;;;;;;;13.25;11.90;;;;;;;-150.07;100.00;67148.00;5037550;28;20025;-78
2022/05/24 01:13:24;;;;;;;15.70;11.88;;;;;;;-150.07;100.00;67148.00;5037124;28;20132;-77
2022/05/24 01:15:52;;;;;;;15.20;11.50;;;;;;;-150.07;100.00;67148.00;5034412;28;20036;-77
2022/05/24 01:18:23;;;;;;;11.07;9.20;;;;;;;-150.07;100.00;67148.00;5036409;28;20052;-77
2022/05/24 01:20:56;;;;;;;12.63;7.40;;;;;;;-150.07;100.00;67148.00;5037115;28;20029;-78
2022/05/24 01:24:09;;;;;;;13.05;5.90;;;;;;;-150.07;100.00;67148.00;5037026;28;20875;-77
2022/05/24 01:26:45;;;;;;;9.65;6.30;;;;;;;-150.07;100.00;67148.00;5036519;28;20544;-77
2022/05/24 01:29:13;;;;;;;8.68;7.32;;;;;;;-150.07;100.00;67148.00;5037713;28;20040;-76
2022/05/24 01:37:20;;;;;;;11.38;7.07;;;;;;;-150.07;100.00;67148.00;5034710;28;20555;-76
2022/05/24 01:39:51;;;;;;;7.18;5.85;;;;;;;-150.07;100.00;67148.00;5033408;28;20550;-76
2022/05/24 01:42:20;;;;;;;7.25;6.05;;;;;;;-150.07;100.00;67148.00;5033568;28;20120;-77
2022/05/24 01:45:05;;;;;;;9.02;7.32;;;;;;;-150.07;100.00;67148.00;5035649;28;20032;-77
2022/05/24 01:47:35;;;;;;;5.53;4.95;;;;;;;-150.07;100.00;67148.00;5036187;28;20017;-77
2022/05/24 01:50:10;;;;;;;6.45;5.35;;;;;;;-150.07;100.00;67148.00;5034574;28;20025;-77
2022/05/24 01:53:01;;;;;;;9.75;6.20;;;;;;;-150.07;100.00;67148.00;5033505;28;20021;-77
2022/05/24 01:55:40;;;;;;;15.82;6.50;;;;;;;-150.07;100.00;67148.00;5033314;28;20030;-77
2022/05/24 01:58:11;;;;;;;10.93;5.95;;;;;;;-150.07;100.00;67148.00;5035328;28;20033;-78
2022/05/24 02:00:41;;;;;;;8.10;5.32;;;;;;;-150.07;100.00;67148.00;5039308;28;20020;-78
2022/05/24 02:03:08;;;;;;;7.43;5.13;;;;;;;-150.07;100.00;67148.00;5038158;28;20029;-78
2022/05/24 02:05:40;;;;;;;7.80;5.38;;;;;;;-150.07;100.00;67148.00;5034214;28;20045;-77
2022/05/24 02:08:09;;;;;;;6.32;5.72;;;;;;;-150.07;100.00;67148.00;5033977;28;20112;-77
2022/05/24 02:10:52;;;;;;;9.82;5.78;;;;;;;-150.07;100.00;67148.00;5035765;28;20083;-78
2022/05/24 02:13:35;;;;;;;8.30;5.53;;;;;;;-150.07;100.00;67148.00;5036330;28;20037;-76
2022/05/24 02:16:08;;;;;;;9.25;5.70;;;;;;;-150.07;100.00;67148.00;5034962;28;20026;-78
2022/05/24 02:18:39;;;;;;;9.50;6.43;;;;;;;-150.07;100.00;67148.00;5033990;28;20029;-77
2022/05/24 02:21:07;;;;;;;9.35;7.38;;;;;;;-150.07;100.00;67148.00;5033428;28;20029;-78
2022/05/24 02:23:48;;;;;;;15.25;6.75;;;;;;;-150.07;100.00;67148.00;5033849;28;20108;-78
2022/05/24 02:26:18;;;;;;;16.98;9.15;;;;;;;-150.07;100.00;67148.00;5035002;28;20437;-77
2022/05/24 02:28:45;;;;;;;12.90;7.05;;;;;;;-150.07;100.00;67148.00;5018321;28;20030;-74
2022/05/24 02:31:18;;;;;;;13.65;7.50;;;;;;;-150.07;100.00;67148.00;5035370;28;20041;-78
2022/05/24 02:33:46;;;;;;;12.85;7.28;;;;;;;-150.07;100.00;67148.00;5034812;28;20393;-77
2022/05/24 02:36:15;;;;;;;10.23;6.50;;;;;;;-150.07;100.00;67148.00;5036199;28;20028;-76
2022/05/24 02:38:42;;;;;;;7.30;6.57;;;;;;;-150.07;100.00;67148.00;5035698;28;20025;-77
2022/05/24 02:43:53;;;;;;;8.73;6.55;;;;;;;-150.07;100.00;67148.00;5034280;28;20040;-77
2022/05/24 02:46:20;;;;;;;10.05;7.20;;;;;;;-150.07;100.00;67148.00;5035604;28;20171;-77
2022/05/24 02:48:47;;;;;;;11.20;7.53;;;;;;;-150.07;100.00;67148.00;5035550;28;20109;-79
2022/05/24 02:51:15;;;;;;;11.68;6.72;;;;;;;-150.07;100.00;67148.00;5033005;28;20037;-77
2022/05/24 02:53:44;;;;;;;12.88;7.22;;;;;;;-150.07;100.00;67148.00;5032363;28;20064;-77
2022/05/24 02:56:11;;;;;;;9.50;5.47;;;;;;;-150.07;100.00;67148.00;5033825;28;20021;-78
2022/05/24 02:58:38;;;;;;;6.57;5.72;;;;;;;-150.07;100.00;67148.00;5013753;28;20033;-77
2022/05/24 03:01:31;;;;;;;7.22;5.95;;;;;;;-150.07;100.00;67148.00;5032651;28;20025;-77
2022/05/24 03:03:57;;;;;;;7.70;5.25;;;;;;;-150.07;100.00;67148.00;5032434;28;20087;-77
2022/05/24 03:06:25;;;;;;;7.20;5.45;;;;;;;-150.07;100.00;67148.00;5033763;28;20033;-77
2022/05/24 03:14:24;;;;;;;6.70;5.03;;;;;;;-150.07;100.00;67148.00;5036510;28;20532;-77
2022/05/24 03:16:53;;;;;;;16.20;6.15;;;;;;;-150.07;100.00;67148.00;5036006;28;20052;-77
2022/05/24 03:19:20;;;;;;;14.23;6.10;;;;;;;-150.07;100.00;67148.00;5037715;28;20375;-78
2022/05/24 03:21:47;;;;;;;6.10;5.40;;;;;;;-150.07;100.00;67148.00;5038164;28;20054;-77
2022/05/24 03:24:14;;;;;;;13.65;5.78;;;;;;;-150.07;100.00;67148.00;5036635;28;20033;-81
2022/05/24 03:26:41;;;;;;;7.40;6.70;;;;;;;-150.07;100.00;67148.00;5038218;28;20029;-76
2022/05/24 03:29:07;;;;;;;7.57;6.38;;;;;;;-150.07;100.00;67148.00;5034220;28;20128;-77
2022/05/24 03:31:35;;;;;;;7.95;6.75;;;;;;;-150.07;100.00;67148.00;5031072;28;20493;-78
2022/05/24 03:34:02;;;;;;;11.80;8.32;;;;;;;-150.07;100.00;67148.00;5032929;28;20037;-78
2022/05/24 03:36:29;;;;;;;10.48;6.13;;;;;;;-150.07;100.00;67148.00;5033247;28;20056;-77
2022/05/24 03:38:56;;;;;;;14.40;6.53;;;;;;;-150.07;100.00;67148.00;5038538;28;20018;-77
2022/05/24 03:41:23;;;;;;;10.07;6.65;;;;;;;-150.07;100.00;67148.00;5038995;28;20022;-78
2022/05/24 03:43:50;;;;;;;10.73;6.43;;;;;;;-150.07;100.00;67148.00;5038408;28;20025;-77
2022/05/24 03:46:17;;;;;;;10.93;7.07;;;;;;;-150.07;100.00;67148.00;5032914;28;20061;-78
2022/05/24 03:48:46;;;;;;;9.18;6.50;;;;;;;-150.07;100.00;67148.00;5034137;28;20034;-76
2022/05/24 03:51:13;;;;;;;5.93;5.40;;;;;;;-150.07;100.00;67148.00;5033718;28;20030;-78
2022/05/24 03:53:39;;;;;;;7.13;6.13;;;;;;;-150.07;100.00;67148.00;5033416;28;20026;-76
2022/05/24 03:56:06;;;;;;;11.73;6.82;;;;;;;-150.07;100.00;67148.00;5032628;28;20021;-78
2022/05/24 03:58:34;;;;;;;8.15;6.25;;;;;;;-150.07;100.00;67148.00;5032844;28;20056;-77
2022/05/24 04:01:01;;;;;;;12.48;6.25;;;;;;;-150.07;100.00;67148.00;5037943;28;20116;-77
2022/05/24 04:03:28;;;;;;;7.10;6.40;;;;;;;-150.07;100.00;67148.00;5038218;28;20033;-78
2022/05/24 04:05:55;;;;;;;16.27;6.60;;;;;;;-150.07;100.00;67148.00;5037794;28;20048;-77
2022/05/24 04:08:26;;;;;;;11.57;6.22;;;;;;;-150.07;100.00;67148.00;5037366;28;20103;-77
2022/05/24 04:11:03;;;;;;;10.25;6.05;;;;;;;-150.07;100.00;67148.00;5038357;28;20049;-77
2022/05/24 04:13:31;;;;;;;10.30;6.55;;;;;;;-150.07;100.00;67148.00;5037775;28;20076;-77
2022/05/24 04:15:58;;;;;;;6.00;5.45;;;;;;;-150.07;100.00;67148.00;5037293;28;20236;-76
2022/05/24 04:18:26;;;;;;;7.72;6.50;;;;;;;-150.07;100.00;67148.00;5036311;28;20064;-77
2022/05/24 04:20:53;;;;;;;13.13;6.65;;;;;;;-150.07;100.00;67148.00;5036129;28;20026;-78
2022/05/24 04:23:21;;;;;;;9.70;6.78;;;;;;;-150.07;100.00;67148.00;5036836;28;20032;-80
2022/05/24 04:25:48;;;;;;;12.90;6.82;;;;;;;-150.07;100.00;67148.00;5036812;28;20030;-78
2022/05/24 04:28:19;;;;;;;13.77;5.80;;;;;;;-150.07;100.00;67148.00;5038618;28;20684;-77
2022/05/24 04:30:47;;;;;;;11.07;7.05;;;;;;;-150.07;100.00;67148.00;5034464;28;20128;-76
2022/05/24 04:33:16;;;;;;;9.77;6.13;;;;;;;-150.07;100.00;67148.00;5034592;28;20025;-77
2022/05/24 04:35:44;;;;;;;11.65;5.72;;;;;;;-150.07;100.00;67148.00;5035712;28;20021;-77
2022/05/24 04:38:11;;;;;;;8.93;6.75;;;;;;;-150.07;100.00;67148.00;5035476;28;20060;-77
2022/05/24 04:43:23;;;;;;;10.38;5.25;;;;;;;-150.07;100.00;67148.00;5034355;28;20131;-77
2022/05/24 04:45:53;;;;;;;14.07;5.68;;;;;;;-150.07;100.00;67148.00;5018721;28;20093;-77
2022/05/24 04:48:20;;;;;;;;;;;;;;;-150.07;100.00;67148.00;5036753;28;20019;-77
2022/05/24 04:50:48;;;;;;;16.42;6.18;;;;;;;-150.07;100.00;67148.00;5036881;28;19920;-77
2022/05/24 04:53:15;;;;;;;7.53;5.90;;;;;;;-150.07;100.00;67148.00;5037831;28;20121;-77
2022/05/24 04:55:43;;;;;;;9.65;5.07;;;;;;;-150.07;100.00;67148.00;5035809;28;20048;-76
2022/05/24 04:58:11;;;;;;;8.77;4.90;;;;;;;-150.07;100.00;67148.00;5036149;28;20109;-78
2022/05/24 05:00:41;;;;;;;15.50;5.00;;;;;;;-150.07;100.00;67148.00;5034841;28;20014;-76
2022/05/24 05:03:11;;;;;;;;;;;;;;;-150.07;100.00;67148.00;5016809;28;20474;-77
2022/05/24 05:05:38;;;;;;;10.02;5.97;;;;;;;-150.07;100.00;67148.00;5037065;28;20365;-77
2022/05/24 05:08:05;;;;;;;9.30;4.90;;;;;;;-150.07;100.00;67148.00;5037709;28;20375;-78
2022/05/24 05:10:37;;;;;;;13.05;5.88;;;;;;;-150.07;100.00;67148.00;5038557;28;20140;-77
2022/05/24 05:13:05;;;;;;;7.20;5.15;;;;;;;-150.07;100.00;67148.00;5036870;28;20025;-77
2022/05/24 05:15:34;;;;;;;7.18;4.57;;;;;;;-150.07;100.00;67148.00;5036321;28;20037;-77
2022/05/24 05:18:06;;;;;;;6.25;5.25;;;;;;;-150.07;100.00;67148.00;5036923;28;20029;-76
2022/05/24 05:20:41;;;;;;;9.13;5.82;;;;;;;-150.07;100.00;67148.00;5034964;28;20056;-78
2022/05/24 05:23:14;;;;;;;7.50;5.85;;;;;;;-150.07;100.00;67148.00;5036205;28;20086;-78
2022/05/24 05:25:42;;;;;;;9.32;5.50;;;;;;;-150.07;100.00;67148.00;5036057;28;20041;-77
2022/05/24 05:28:09;;;;;;;6.40;5.07;;;;;;;-150.07;100.00;67148.00;5043372;28;20021;-77
2022/05/24 05:33:21;;;;;;;5.60;4.75;;;;;;;-150.07;100.00;67148.00;5033917;28;20445;-76
2022/05/24 05:35:49;;;;;;;7.35;6.28;;;;;;;-150.07;100.00;67148.00;5035385;28;20033;-79
2022/05/24 05:38:16;;;;;;;5.88;5.20;;;;;;;-150.07;100.00;67148.00;5041323;28;20076;-78
2022/05/24 05:40:43;;;;;;;8.43;4.30;;;;;;;-150.07;100.00;67148.00;5038727;28;20048;-78
2022/05/24 05:43:11;;;;;;;9.95;5.43;;;;;;;-150.07;100.00;67148.00;5034655;28;20057;-77
2022/05/24 05:45:38;;;;;;;9.98;4.45;;;;;;;-150.07;100.00;67148.00;5034832;28;20037;-77
2022/05/24 05:48:05;;;;;;;6.65;4.18;;;;;;;-150.07;100.00;67148.00;5036822;28;20524;-77
2022/05/24 05:50:32;;;;;;;13.02;5.32;;;;;;;-150.07;100.00;67148.00;5036140;28;20088;-78
2022/05/24 05:53:03;;;;;;;7.57;4.55;;;;;;;-150.07;100.00;67148.00;5034028;28;20068;-77
2022/05/24 05:55:31;;;;;;;15.35;5.78;;;;;;;-150.07;100.00;67148.00;5033685;28;20053;-77
2022/05/24 05:57:58;;;;;;;10.38;5.10;;;;;;;-150.07;100.00;67148.00;5035597;28;20133;-78
2022/05/24 06:00:25;;;;;;;5.20;4.60;;;;;;;-150.07;100.00;67148.00;5036196;28;20029;-78
2022/05/24 06:02:51;;;;;;;7.40;4.47;;;;;;;-150.07;100.00;67148.00;5034885;28;20117;-77
2022/05/24 06:05:18;;;;;;;9.13;4.47;;;;;;;-150.07;100.00;67148.00;5036016;28;20026;-77
2022/05/24 06:07:45;;;;;;;6.75;3.75;;;;;;;-150.07;100.00;67148.00;5033147;28;20020;-78
2022/05/24 06:10:13;;;;;;;10.63;4.70;;;;;;;-150.07;100.00;67148.00;5033087;28;20030;-77
2022/05/24 06:12:40;;;;;;;11.00;4.22;;;;;;;-150.07;100.00;67148.00;5017936;28;20482;-78
2022/05/24 06:15:08;;;;;;;8.38;3.97;;;;;;;-150.07;100.00;67148.00;5034738;28;20040;-78
2022/05/24 06:17:45;;;;;;;7.30;4.70;;;;;;;-150.07;100.00;67148.00;5033834;28;20470;-77
2022/05/24 06:20:13;;;;;;;11.77;5.40;;;;;;;-150.07;100.00;67148.00;5035365;28;20077;-77
2022/05/24 06:22:40;;;;;;;8.13;5.40;;;;;;;-150.07;100.00;67148.00;5035837;28;20040;-77
2022/05/24 06:25:07;;;;;;;9.20;6.55;;;;;;;-150.07;100.00;67148.00;5017539;28;20038;-78
2022/05/24 06:27:34;;;;;;;5.25;4.00;;;;;;;-150.07;100.00;67148.00;5034608;28;20021;-77
2022/05/24 06:30:04;;;;;;;6.40;4.20;;;;;;;-150.07;100.00;67148.00;5034292;28;20026;-77
2022/05/24 06:32:31;;;;;;;4.15;3.85;;;;;;;-150.07;100.00;67148.00;5035336;28;20053;-77
2022/05/24 06:34:58;;;;;;;8.77;3.97;;;;;;;-150.07;100.00;67148.00;5035163;28;20043;-78
2022/05/24 06:37:25;;;;;;;9.20;3.90;;;;;;;-150.07;100.00;67148.00;5036589;28;20025;-78
2022/05/24 06:39:52;;;;;;;5.28;4.15;;;;;;;-150.07;100.00;67148.00;5035025;28;20017;-76
2022/05/24 06:42:18;;;;;;;5.00;4.50;;;;;;;-150.07;100.00;67148.00;5037219;28;20017;-78
2022/05/24 06:44:45;;;;;;;5.63;4.45;;;;;;;-150.07;100.00;67148.00;5030440;28;20021;-77
2022/05/24 06:47:12;;;;;;;6.90;4.00;;;;;;;-150.07;100.00;67148.00;5039680;28;20040;-77
2022/05/24 06:49:39;;;;;;;7.03;4.38;;;;;;;-150.07;100.00;67148.00;5050494;28;20045;-77
2022/05/24 06:52:06;;;;;;;4.05;3.65;;;;;;;-150.07;100.00;67148.00;5043574;28;20056;-78
2022/05/24 06:54:33;;;;;;;5.57;4.28;;;;;;;-150.07;100.00;67148.00;5037073;28;20013;-77
2022/05/24 06:57:00;;;;;;;5.25;4.65;;;;;;;-150.07;100.00;67148.00;5033377;28;20100;-78
2022/05/24 07:02:28;;;;;;;10.93;4.07;;;;;;;-150.07;100.00;67148.00;5032738;28;20041;-78
2022/05/24 07:05:21;;;;;;;7.35;4.38;;;;;;;-150.07;100.00;67148.00;5012445;28;20029;-76
2022/05/24 07:07:48;;;;;;;8.23;4.38;;;;;;;-150.07;100.00;67148.00;5010637;28;20038;-78
2022/05/24 07:10:18;;;;;;;11.23;4.45;;;;;;;-150.07;100.00;67148.00;5012972;28;20038;-77
2022/05/24 07:12:45;;;;;;;11.68;4.70;;;;;;;-150.07;100.00;67148.00;5012569;28;20029;-77
2022/05/24 07:15:13;;;;;;;10.15;4.22;;;;;;;-150.07;100.00;67148.00;5013455;28;20084;-78
2022/05/24 07:17:40;;;;;;;5.82;3.97;;;;;;;-150.07;100.00;67148.00;5013907;28;20041;-77
2022/05/24 07:20:07;;;;;;;6.43;4.68;;;;;;;-150.07;100.00;67148.00;5013291;28;20105;-77
2022/05/24 07:22:35;;;;;;;10.35;5.18;;;;;;;-150.07;100.00;67148.00;5011894;28;20026;-76
2022/05/24 07:25:02;;;;;;;5.63;4.15;;;;;;;-150.07;100.00;67148.00;5011610;28;20394;-78
2022/05/24 07:27:29;;;;;;;6.90;4.38;;;;;;;-150.07;100.00;67148.00;5011905;28;20402;-77
2022/05/24 07:29:56;;;;;;;10.60;5.50;;;;;;;-150.07;100.00;67148.00;5011695;28;20057;-77
2022/05/24 07:32:22;;;;;;;7.78;5.10;;;;;;;-150.07;100.00;67148.00;5013464;28;20050;-78
2022/05/24 07:34:49;;;;;;;5.80;4.38;;;;;;;-150.07;100.00;67148.00;5034723;28;20029;-77
2022/05/24 07:37:17;;;;;;;11.93;5.28;;;;;;;-150.07;100.00;67148.00;5035133;28;20482;-76
2022/05/24 07:39:45;;;;;;;10.13;4.38;;;;;;;-150.07;100.00;67148.00;5037093;28;20071;-76
2022/05/24 07:47:42;;;;;;;10.07;6.00;;;;;;;-150.07;100.00;67148.00;5035116;28;20095;-77
2022/05/24 07:50:09;;;;;;;7.63;6.13;;;;;;;-150.07;100.00;67148.00;5035367;28;20033;-78
2022/05/24 07:52:36;;;;;;;7.03;5.50;;;;;;;-150.07;100.00;67148.00;5035487;28;20017;-76
2022/05/24 07:55:03;;;;;;;4.82;4.35;;;;;;;-150.07;100.00;67148.00;5035900;28;20490;-77
2022/05/24 07:57:30;;;;;;;8.88;6.10;;;;;;;-150.07;100.00;67148.00;5034723;28;20018;-77
2022/05/24 07:59:57;;;;;;;6.80;5.40;;;;;;;-150.07;100.00;67148.00;5017142;28;20026;-77
2022/05/24 08:02:24;;;;;;;12.32;4.75;;;;;;;-150.07;100.00;67148.00;5034171;28;20401;-76
2022/05/24 08:04:54;;;;;;;9.38;5.57;;;;;;;-150.07;100.00;67148.00;5034386;28;20470;-76
2022/05/24 08:07:21;;;;;;;6.63;5.30;;;;;;;-150.07;100.00;67148.00;5016590;28;20093;-76
2022/05/24 08:09:48;;;;;;;10.63;5.35;;;;;;;-150.07;100.00;67148.00;5034465;28;20034;-77
2022/05/24 08:12:14;;;;;;;5.63;4.82;;;;;;;-150.07;100.00;67148.00;5034277;28;20036;-77
2022/05/24 08:14:41;;;;;;;9.93;4.75;;;;;;;-150.07;100.00;67148.00;5034135;28;20029;-77
2022/05/24 08:17:09;;;;;;;7.25;5.35;;;;;;;-150.07;100.00;67148.00;5034199;28;20152;-76
2022/05/24 08:19:36;;;;;;;6.10;5.47;;;;;;;-150.07;100.00;67148.00;5034575;28;20025;-77
2022/05/24 08:22:03;;;;;;;7.45;5.93;;;;;;;-150.07;100.00;67148.00;5033925;28;20448;-76
2022/05/24 08:24:30;;;;;;;7.43;6.30;;;;;;;-150.07;100.00;67148.00;5034145;28;20029;-77
2022/05/24 08:26:57;;;;;;;7.43;5.30;;;;;;;-150.07;100.00;67148.00;5034067;28;20029;-76
2022/05/24 08:29:24;;;;;;;11.73;5.57;;;;;;;-150.07;100.00;67148.00;5034264;28;20577;-77
2022/05/24 08:31:52;;;;;;;8.57;5.97;;;;;;;-150.07;100.00;67148.00;5034012;28;20048;-77
2022/05/24 08:34:19;;;;;;;8.18;5.20;;;;;;;-150.07;100.00;67148.00;5034141;28;20083;-78
2022/05/24 08:36:46;;;;;;;5.25;4.78;;;;;;;-150.07;100.00;67148.00;5018249;28;20037;-76
2022/05/24 08:39:13;;;;;;;7.90;5.07;;;;;;;-150.07;100.00;67148.00;5034538;28;20403;-77
2022/05/24 08:42:11;;;;;;;12.93;5.28;;;;;;;-150.07;100.00;67148.00;5033369;28;20436;-76
2022/05/24 08:50:20;;;;;;;6.75;5.03;;;;;;;-150.07;100.00;67148.00;5034479;28;20051;-76
2022/05/24 08:53:13;;;;;;;10.30;6.53;;;;;;;-150.07;100.00;67148.00;5033915;28;20034;-77
2022/05/24 08:55:43;;;;;;;11.20;6.35;;;;;;;-150.07;100.00;67148.00;5033741;28;20053;-77
2022/05/24 08:58:21;;;;;;;6.43;5.18;;;;;;;-150.07;100.00;67148.00;5035096;28;20041;-78
2022/05/24 09:00:48;;;;;;;8.63;6.07;;;;;;;-150.07;100.00;67148.00;5034190;28;20099;-77
2022/05/24 09:03:15;;;;;;;9.43;5.32;;;;;;;-150.07;100.00;67148.00;5033836;28;20040;-76
2022/05/24 09:05:51;;;;;;;12.90;5.55;;;;;;;-150.07;100.00;67148.00;5034090;28;20580;-77
2022/05/24 09:08:51;;;;;;;6.88;5.72;;;;;;;-150.07;100.00;67148.00;5034641;28;20057;-77
2022/05/24 09:11:41;;;;;;;7.13;4.35;;;;;;;-150.07;100.00;67148.00;5030188;28;20172;-77
2022/05/24 09:14:46;;;;;;;11.00;5.30;;;;;;;-150.07;100.00;67148.00;5033903;28;20037;-77
2022/05/24 09:17:13;;;;;;;10.95;5.65;;;;;;;-150.07;100.00;67148.00;5033568;28;20029;-77
2022/05/24 09:19:44;;;;;;;8.07;6.45;;;;;;;-150.07;100.00;67148.00;5033615;28;20017;-77
2022/05/24 09:22:12;;;;;;;8.77;6.15;;;;;;;-150.07;100.00;67148.00;5032916;28;20091;-77
2022/05/24 09:24:47;;;;;;;10.48;5.97;;;;;;;-150.07;100.00;67148.00;5033216;28;20030;-76
2022/05/24 09:27:20;;;;;;;6.93;6.22;;;;;;;-150.07;100.00;67148.00;5032912;28;20056;-76
2022/05/24 09:30:07;;;;;;;7.53;6.82;;;;;;;-150.07;100.00;67148.00;5032929;28;20030;-77
2022/05/24 09:32:42;;;;;;;13.07;8.13;;;;;;;-150.07;100.00;67148.00;5032455;28;20041;-76
2022/05/24 09:35:23;;;;;;;9.20;6.70;;;;;;;-150.07;100.00;67148.00;5032646;28;20021;-77
2022/05/24 09:38:03;;;;;;;10.98;7.63;;;;;;;-150.07;100.00;67148.00;5032923;28;20044;-77
2022/05/24 09:40:43;;;;;;;8.63;7.70;;;;;;;-150.07;100.00;67148.00;5032627;28;20029;-77
2022/05/24 09:43:18;;;;;;;9.15;8.23;;;;;;;-150.07;100.00;67148.00;5032730;28;20409;-77
2022/05/24 09:45:52;;;;;;;11.68;7.85;;;;;;;-150.07;100.00;67148.00;5032535;28;20018;-77
2022/05/24 09:48:26;;;;;;;14.13;8.18;;;;;;;-150.07;100.00;67148.00;5032717;28;20037;-76
2022/05/24 09:50:54;;;;;;;9.13;7.22;;;;;;;-150.07;100.00;67148.00;5032739;28;20057;-77
2022/05/24 09:53:26;;;;;;;8.23;7.43;;;;;;;-150.07;100.00;67148.00;5032572;28;20102;-76
2022/05/24 09:56:18;;;;;;;9.38;7.90;;;;;;;-150.07;100.00;67148.00;5031358;28;20086;-78
2022/05/24 09:59:05;;;;;;;10.93;8.35;;;;;;;-150.07;100.00;67148.00;5032024;28;20025;-77
2022/05/24 10:01:44;;;;;;;11.15;7.85;;;;;;;-150.07;100.00;67148.00;5031968;28;20104;-77
2022/05/24 10:04:10;;;;;;;15.55;8.90;;;;;;;-150.07;100.00;67148.00;5031779;28;20486;-77
2022/05/24 10:06:40;;;;;;;13.68;9.20;;;;;;;-150.07;100.00;67148.00;5031863;28;20021;-77
2022/05/24 10:09:19;;;;;;;12.00;9.07;;;;;;;-150.07;100.00;67148.00;5031788;28;20048;-78
2022/05/24 10:12:18;;;;;;;11.05;8.27;;;;;;;-150.07;100.00;67148.00;5031894;28;20477;-76
2022/05/24 10:15:07;;;;;;;15.73;10.20;;;;;;;-150.07;100.00;67148.00;5031738;28;20029;-77
2022/05/24 10:17:41;;;;;;;11.15;9.98;;;;;;;-150.07;100.00;67148.00;5031470;28;20120;-77
2022/05/24 10:20:36;;;;;;;13.93;9.85;;;;;;;-150.07;100.00;67148.00;5032225;28;20032;-76
2022/05/24 10:23:33;;;;;;;12.82;9.48;;;;;;;-150.07;100.00;67148.00;5032093;28;20037;-89
2022/05/24 10:26:29;;;;;;;13.82;9.80;;;;;;;-150.07;100.00;67148.00;5018546;28;20033;-86
2022/05/24 10:28:56;;;;;;;11.82;10.65;;;;;;;-150.07;100.00;67148.00;5018961;28;20037;-88
2022/05/24 10:31:55;;;;;;;11.80;9.82;;;;;;;-150.07;100.00;67148.00;5019943;28;20053;-89
2022/05/24 10:40:41;;;;;;;16.70;11.27;;;;;;;-150.07;100.00;67148.00;4997970;28;20140;-88
2022/05/24 10:43:19;;;;;;;13.63;10.00;;;;;;;-150.07;100.00;67148.00;4996809;28;20061;-87
2022/05/24 10:46:00;;;;;;;17.67;10.43;;;;;;;-150.07;100.00;67148.00;4994083;28;20045;-89
2022/05/24 10:48:48;;;;;;;16.83;11.18;;;;;;;-150.07;100.00;67148.00;4993609;28;20018;-88
2022/05/24 10:51:36;;;;;;;14.85;10.38;;;;;;;-150.07;100.00;67148.00;4997501;28;20107;-89
2022/05/24 10:54:16;;;;;;;14.32;12.00;;;;;;;-150.07;100.00;67148.00;5004433;28;20037;-79
2022/05/24 10:56:51;;;;;;;14.00;11.75;;;;;;;-150.07;100.00;67148.00;4995118;28;20764;-80
2022/05/24 10:59:35;;;;;;;12.40;11.10;;;;;;;-150.07;100.00;67148.00;4992276;28;20053;-89
2022/05/24 11:02:23;;;;;;;16.17;13.18;;;;;;;-150.07;100.00;67148.00;4992119;28;20503;-82
2022/05/24 11:05:07;;;;;;;13.05;11.68;;;;;;;-150.07;100.00;67148.00;4990146;28;20053;-83
2022/05/24 11:07:36;;;;;;;13.80;12.35;;;;;;;-150.07;100.00;67148.00;4992010;28;20053;-79
2022/05/24 11:10:21;;;;;;;15.52;12.02;;;;;;;-150.07;100.00;67148.00;4991870;28;20035;-83
2022/05/24 11:12:56;;;;;;;14.52;13.00;;;;;;;-150.07;100.00;67148.00;4990486;28;20026;-82
2022/05/24 11:15:36;;;;;;;18.60;13.98;;;;;;;-150.07;100.00;67148.00;4991553;28;20049;-77
2022/05/24 11:18:20;;;;;;;15.82;11.93;;;;;;;-150.07;100.00;67148.00;4992008;28;20019;-76
2022/05/24 11:21:13;;;;;;;17.40;15.13;;;;;;;-150.07;100.00;67148.00;4991605;28;20034;-79
2022/05/24 11:23:58;;;;;;;21.40;13.65;;;;;;;-150.07;100.00;67148.00;4991592;28;20102;-79
2022/05/24 11:26:34;;;;;;;12.90;11.48;;;;;;;-150.07;100.00;67148.00;4992640;28;20106;-85
2022/05/24 11:29:29;;;;;;;14.93;13.23;;;;;;;-150.07;100.00;67148.00;4991555;28;20469;-83
2022/05/24 11:32:09;;;;;;;15.65;13.13;;;;;;;-150.07;100.00;67148.00;5015999;28;20540;-78
2022/05/24 11:34:59;;;;;;;18.33;13.10;;;;;;;-150.07;100.00;67148.00;5029483;28;20034;-79
2022/05/24 11:37:33;;;;;;;13.95;12.55;;;;;;;-150.07;100.00;67148.00;5030743;28;20084;-77
2022/05/24 11:40:25;;;;;;;22.58;13.23;;;;;;;-150.07;100.00;67148.00;5030534;28;20025;-78
2022/05/24 11:42:52;;;;;;;17.73;14.02;;;;;;;-150.07;100.00;67148.00;5025903;28;20053;-78
2022/05/24 11:45:31;;;;;;;26.27;14.77;;;;;;;-150.07;100.00;67148.00;5028298;28;20052;-78
2022/05/24 11:48:19;;;;;;;19.80;15.20;;;;;;;-150.07;100.00;67148.00;5026657;28;20022;-78
2022/05/24 11:50:50;;;;;;;17.17;14.68;;;;;;;-150.07;100.00;67148.00;5026741;28;20131;-78
2022/05/24 11:53:38;;;;;;;16.48;13.73;;;;;;;-150.07;100.00;67148.00;5026959;28;20041;-78
2022/05/24 11:56:11;;;;;;;16.33;13.43;;;;;;;-150.07;100.00;67148.00;5029348;28;20034;-78
2022/05/24 11:58:38;;;;;;;18.92;14.30;;;;;;;-150.07;100.00;67148.00;5031091;28;20071;-79
2022/05/24 12:01:29;;;;;;;16.60;14.02;;;;;;;-150.07;100.00;67148.00;5025437;28;20474;-78
2022/05/24 12:09:56;;;;;;;22.33;16.77;;;;;;;-150.07;100.00;67148.00;5023718;28;20033;-78
2022/05/24 12:12:55;;;;;;;22.08;16.23;;;;;;;-150.07;100.00;67148.00;5037552;28;20087;-78
2022/05/24 12:15:25;;;;;;;18.83;16.92;;;;;;;-150.07;100.00;67148.00;5032882;28;20025;-78